sensor_id;sensor_type;location;lat;lon;timestamp;P1;durP1;ratioP1;P2;durP2;ratioP2
64714;SDS011;51144;53.002;6.506;2022-11-15T00:00:26;21.33;;;16.75;;
64714;SDS011;51144;53.002;6.506;2022-11-15T00:02:52;19.98;;;16.42;;
64714;SDS011;51144;53.002;6.506;2022-11-15T00:05:18;25.23;;;18.48;;
64714;SDS011;51144;53.002;6.506;2022-11-15T00:07:43;22.25;;;17.15;;
64714;SDS011;51144;53.002;6.506;2022-11-15T00:10:09;19.48;;;17.20;;
64714;SDS011;51144;53.002;6.506;2022-11-15T00:12:35;22.25;;;18.15;;
64714;SDS011;51144;53.002;6.506;2022-11-15T00:15:00;25.77;;;16.92;;
64714;SDS011;51144;53.002;6.506;2022-11-15T00:17:26;20.63;;;17.20;;
64714;SDS011;51144;53.002;6.506;2022-11-15T00:19:52;22.52;;;17.60;;
64714;SDS011;51144;53.002;6.506;2022-11-15T00:22:17;23.05;;;18.08;;
64714;SDS011;51144;53.002;6.506;2022-11-15T00:24:43;22.23;;;18.58;;
64714;SDS011;51144;53.002;6.506;2022-11-15T00:27:09;24.98;;;16.10;;
64714;SDS011;51144;53.002;6.506;2022-11-15T00:29:34;22.98;;;17.65;;
64714;SDS011;51144;53.002;6.506;2022-11-15T00:32:02;26.13;;;17.63;;
64714;SDS011;51144;53.002;6.506;2022-11-15T00:34:27;22.42;;;17.23;;
64714;SDS011;51144;53.002;6.506;2022-11-15T00:36:53;21.23;;;16.25;;
64714;SDS011;51144;53.002;6.506;2022-11-15T00:39:18;20.67;;;16.65;;
64714;SDS011;51144;53.002;6.506;2022-11-15T00:41:44;21.95;;;17.42;;
64714;SDS011;51144;53.002;6.506;2022-11-15T00:44:10;20.88;;;17.00;;
64714;SDS011;51144;53.002;6.506;2022-11-15T00:46:35;21.55;;;16.90;;
64714;SDS011;51144;53.002;6.506;2022-11-15T00:49:01;20.35;;;16.48;;
64714;SDS011;51144;53.002;6.506;2022-11-15T00:51:26;20.77;;;17.67;;
64714;SDS011;51144;53.002;6.506;2022-11-15T00:53:52;21.92;;;18.02;;
64714;SDS011;51144;53.002;6.506;2022-11-15T00:56:18;25.30;;;19.60;;
64714;SDS011;51144;53.002;6.506;2022-11-15T00:58:43;24.02;;;17.63;;
64714;SDS011;51144;53.002;6.506;2022-11-15T01:01:10;23.95;;;18.15;;
64714;SDS011;51144;53.002;6.506;2022-11-15T01:03:37;22.52;;;18.67;;
64714;SDS011;51144;53.002;6.506;2022-11-15T01:06:04;25.67;;;19.30;;
64714;SDS011;51144;53.002;6.506;2022-11-15T01:08:30;28.05;;;20.35;;
64714;SDS011;51144;53.002;6.506;2022-11-15T01:11:29;25.02;;;19.85;;
64714;SDS011;51144;53.002;6.506;2022-11-15T01:13:48;23.98;;;19.10;;
64714;SDS011;51144;53.002;6.506;2022-11-15T01:16:14;24.10;;;19.77;;
64714;SDS011;51144;53.002;6.506;2022-11-15T01:18:43;23.70;;;18.58;;
64714;SDS011;51144;53.002;6.506;2022-11-15T01:21:10;26.42;;;18.60;;
64714;SDS011;51144;53.002;6.506;2022-11-15T01:23:40;23.13;;;18.70;;
64714;SDS011;51144;53.002;6.506;2022-11-15T01:26:06;24.55;;;19.60;;
64714;SDS011;51144;53.002;6.506;2022-11-15T01:28:36;27.42;;;19.40;;
64714;SDS011;51144;53.002;6.506;2022-11-15T01:31:04;25.80;;;18.95;;
64714;SDS011;51144;53.002;6.506;2022-11-15T01:33:33;26.40;;;18.70;;
64714;SDS011;51144;53.002;6.506;2022-11-15T01:36:03;26.42;;;17.80;;
64714;SDS011;51144;53.002;6.506;2022-11-15T01:38:30;20.50;;;16.83;;
64714;SDS011;51144;53.002;6.506;2022-11-15T01:40:55;23.02;;;17.83;;
64714;SDS011;51144;53.002;6.506;2022-11-15T01:43:25;22.38;;;16.92;;
64714;SDS011;51144;53.002;6.506;2022-11-15T01:48:25;24.45;;;17.30;;
64714;SDS011;51144;53.002;6.506;2022-11-15T01:50:56;24.80;;;17.95;;
64714;SDS011;51144;53.002;6.506;2022-11-15T01:53:22;26.38;;;18.40;;
64714;SDS011;51144;53.002;6.506;2022-11-15T01:55:51;26.63;;;18.35;;
64714;SDS011;51144;53.002;6.506;2022-11-15T01:58:17;27.45;;;18.98;;
64714;SDS011;51144;53.002;6.506;2022-11-15T02:00:43;25.73;;;18.90;;
64714;SDS011;51144;53.002;6.506;2022-11-15T02:03:09;28.55;;;20.05;;
64714;SDS011;51144;53.002;6.506;2022-11-15T02:05:35;27.88;;;19.95;;
64714;SDS011;51144;53.002;6.506;2022-11-15T02:08:02;28.67;;;19.25;;
64714;SDS011;51144;53.002;6.506;2022-11-15T02:10:28;27.52;;;19.38;;
64714;SDS011;51144;53.002;6.506;2022-11-15T02:12:54;27.00;;;18.65;;
64714;SDS011;51144;53.002;6.506;2022-11-15T02:15:21;30.77;;;20.20;;
64714;SDS011;51144;53.002;6.506;2022-11-15T02:18:05;27.90;;;19.42;;
64714;SDS011;51144;53.002;6.506;2022-11-15T02:29:27;28.90;;;19.65;;
64714;SDS011;51144;53.002;6.506;2022-11-15T02:34:50;28.20;;;20.02;;
64714;SDS011;51144;53.002;6.506;2022-11-15T02:40:17;31.05;;;20.33;;
64714;SDS011;51144;53.002;6.506;2022-11-15T02:43:04;29.75;;;19.52;;
64714;SDS011;51144;53.002;6.506;2022-11-15T02:48:43;32.80;;;21.92;;
64714;SDS011;51144;53.002;6.506;2022-11-15T02:51:10;35.90;;;23.05;;
64714;SDS011;51144;53.002;6.506;2022-11-15T02:53:36;37.05;;;21.63;;
64714;SDS011;51144;53.002;6.506;2022-11-15T02:56:02;33.70;;;21.10;;
64714;SDS011;51144;53.002;6.506;2022-11-15T03:01:13;29.77;;;19.70;;
64714;SDS011;51144;53.002;6.506;2022-11-15T03:04:02;32.00;;;20.48;;
64714;SDS011;51144;53.002;6.506;2022-11-15T03:06:55;36.90;;;21.75;;
64714;SDS011;51144;53.002;6.506;2022-11-15T03:09:35;35.75;;;20.95;;
64714;SDS011;51144;53.002;6.506;2022-11-15T03:12:33;35.78;;;19.85;;
64714;SDS011;51144;53.002;6.506;2022-11-15T03:15:19;39.90;;;20.38;;
64714;SDS011;51144;53.002;6.506;2022-11-15T03:17:59;36.40;;;20.67;;
64714;SDS011;51144;53.002;6.506;2022-11-15T03:20:29;34.58;;;21.23;;
64714;SDS011;51144;53.002;6.506;2022-11-15T03:22:56;33.67;;;20.33;;
64714;SDS011;51144;53.002;6.506;2022-11-15T03:25:27;33.88;;;19.85;;
64714;SDS011;51144;53.002;6.506;2022-11-15T03:27:55;33.00;;;19.92;;
64714;SDS011;51144;53.002;6.506;2022-11-15T03:30:24;37.50;;;21.10;;
64714;SDS011;51144;53.002;6.506;2022-11-15T03:32:51;38.95;;;22.48;;
64714;SDS011;51144;53.002;6.506;2022-11-15T03:35:20;45.30;;;23.40;;
64714;SDS011;51144;53.002;6.506;2022-11-15T03:37:53;45.70;;;22.88;;
64714;SDS011;51144;53.002;6.506;2022-11-15T03:43:42;49.80;;;24.55;;
64714;SDS011;51144;53.002;6.506;2022-11-15T03:46:23;46.38;;;23.67;;
64714;SDS011;51144;53.002;6.506;2022-11-15T03:48:58;47.58;;;24.20;;
64714;SDS011;51144;53.002;6.506;2022-11-15T03:51:34;46.80;;;25.25;;
64714;SDS011;51144;53.002;6.506;2022-11-15T03:54:02;59.58;;;26.65;;
64714;SDS011;51144;53.002;6.506;2022-11-15T03:56:29;57.33;;;27.08;;
64714;SDS011;51144;53.002;6.506;2022-11-15T03:58:54;52.25;;;26.95;;
64714;SDS011;51144;53.002;6.506;2022-11-15T04:01:20;50.65;;;26.35;;
64714;SDS011;51144;53.002;6.506;2022-11-15T04:03:45;58.75;;;27.73;;
64714;SDS011;51144;53.002;6.506;2022-11-15T04:06:11;55.83;;;25.77;;
64714;SDS011;51144;53.002;6.506;2022-11-15T04:08:36;57.55;;;27.67;;
64714;SDS011;51144;53.002;6.506;2022-11-15T04:11:02;64.13;;;27.77;;
64714;SDS011;51144;53.002;6.506;2022-11-15T04:13:28;58.45;;;26.73;;
64714;SDS011;51144;53.002;6.506;2022-11-15T04:15:53;59.45;;;27.42;;
64714;SDS011;51144;53.002;6.506;2022-11-15T04:18:19;61.28;;;28.17;;
64714;SDS011;51144;53.002;6.506;2022-11-15T04:20:44;55.92;;;28.15;;
64714;SDS011;51144;53.002;6.506;2022-11-15T04:23:28;62.72;;;27.63;;
64714;SDS011;51144;53.002;6.506;2022-11-15T04:26:32;60.33;;;27.88;;
64714;SDS011;51144;53.002;6.506;2022-11-15T04:28:58;65.07;;;29.42;;
64714;SDS011;51144;53.002;6.506;2022-11-15T04:31:43;60.88;;;29.45;;
64714;SDS011;51144;53.002;6.506;2022-11-15T04:34:08;63.95;;;29.73;;
64714;SDS011;51144;53.002;6.506;2022-11-15T04:36:34;69.18;;;29.95;;
64714;SDS011;51144;53.002;6.506;2022-11-15T04:39:18;69.45;;;29.60;;
64714;SDS011;51144;53.002;6.506;2022-11-15T04:41:44;73.88;;;31.60;;
64714;SDS011;51144;53.002;6.506;2022-11-15T04:44:09;70.28;;;31.33;;
64714;SDS011;51144;53.002;6.506;2022-11-15T04:46:35;71.43;;;32.35;;
64714;SDS011;51144;53.002;6.506;2022-11-15T04:49:01;72.35;;;33.78;;
64714;SDS011;51144;53.002;6.506;2022-11-15T04:51:26;72.72;;;35.33;;
64714;SDS011;51144;53.002;6.506;2022-11-15T04:53:52;74.38;;;34.85;;
64714;SDS011;51144;53.002;6.506;2022-11-15T04:56:18;81.78;;;36.45;;
64714;SDS011;51144;53.002;6.506;2022-11-15T04:58:44;87.38;;;36.78;;
64714;SDS011;51144;53.002;6.506;2022-11-15T05:01:10;89.82;;;37.33;;
64714;SDS011;51144;53.002;6.506;2022-11-15T05:03:38;98.40;;;36.67;;
64714;SDS011;51144;53.002;6.506;2022-11-15T05:06:22;85.63;;;37.00;;
64714;SDS011;51144;53.002;6.506;2022-11-15T05:08:48;88.30;;;38.42;;
64714;SDS011;51144;53.002;6.506;2022-11-15T05:11:14;104.53;;;40.13;;
64714;SDS011;51144;53.002;6.506;2022-11-15T05:13:39;95.75;;;39.80;;
64714;SDS011;51144;53.002;6.506;2022-11-15T05:16:05;103.30;;;40.17;;
64714;SDS011;51144;53.002;6.506;2022-11-15T05:18:30;95.78;;;39.05;;
64714;SDS011;51144;53.002;6.506;2022-11-15T05:21:02;99.57;;;41.53;;
64714;SDS011;51144;53.002;6.506;2022-11-15T05:23:29;98.28;;;39.55;;
64714;SDS011;51144;53.002;6.506;2022-11-15T05:25:58;104.85;;;40.85;;
64714;SDS011;51144;53.002;6.506;2022-11-15T05:28:24;103.80;;;42.97;;
64714;SDS011;51144;53.002;6.506;2022-11-15T05:30:50;107.95;;;43.20;;
64714;SDS011;51144;53.002;6.506;2022-11-15T05:33:15;105.78;;;42.75;;
64714;SDS011;51144;53.002;6.506;2022-11-15T05:35:42;98.13;;;42.13;;
64714;SDS011;51144;53.002;6.506;2022-11-15T05:38:13;99.38;;;41.63;;
64714;SDS011;51144;53.002;6.506;2022-11-15T05:40:39;99.10;;;42.63;;
64714;SDS011;51144;53.002;6.506;2022-11-15T05:43:05;105.65;;;43.55;;
64714;SDS011;51144;53.002;6.506;2022-11-15T05:45:31;112.72;;;43.72;;
64714;SDS011;51144;53.002;6.506;2022-11-15T05:47:58;114.03;;;43.40;;
64714;SDS011;51144;53.002;6.506;2022-11-15T05:50:28;108.38;;;44.20;;
64714;SDS011;51144;53.002;6.506;2022-11-15T05:52:54;98.00;;;44.08;;
64714;SDS011;51144;53.002;6.506;2022-11-15T05:55:20;103.13;;;43.95;;
64714;SDS011;51144;53.002;6.506;2022-11-15T05:57:46;92.95;;;40.90;;
64714;SDS011;51144;53.002;6.506;2022-11-15T06:00:12;94.53;;;41.85;;
64714;SDS011;51144;53.002;6.506;2022-11-15T06:02:38;91.65;;;42.22;;
64714;SDS011;51144;53.002;6.506;2022-11-15T06:05:03;92.95;;;42.33;;
64714;SDS011;51144;53.002;6.506;2022-11-15T06:07:29;92.57;;;41.72;;
64714;SDS011;51144;53.002;6.506;2022-11-15T06:09:55;89.50;;;41.85;;
64714;SDS011;51144;53.002;6.506;2022-11-15T06:12:21;82.45;;;40.08;;
64714;SDS011;51144;53.002;6.506;2022-11-15T06:14:46;87.50;;;41.67;;
64714;SDS011;51144;53.002;6.506;2022-11-15T06:17:12;95.05;;;42.15;;
64714;SDS011;51144;53.002;6.506;2022-11-15T06:19:38;86.80;;;42.05;;
64714;SDS011;51144;53.002;6.506;2022-11-15T06:22:03;93.13;;;42.67;;
64714;SDS011;51144;53.002;6.506;2022-11-15T06:24:29;88.07;;;41.97;;
64714;SDS011;51144;53.002;6.506;2022-11-15T06:26:54;91.13;;;43.67;;
64714;SDS011;51144;53.002;6.506;2022-11-15T06:29:20;93.10;;;42.30;;
64714;SDS011;51144;53.002;6.506;2022-11-15T06:31:46;82.95;;;40.13;;
64714;SDS011;51144;53.002;6.506;2022-11-15T06:34:11;85.78;;;40.85;;
64714;SDS011;51144;53.002;6.506;2022-11-15T06:36:37;93.90;;;41.58;;
64714;SDS011;51144;53.002;6.506;2022-11-15T06:39:03;92.55;;;39.95;;
64714;SDS011;51144;53.002;6.506;2022-11-15T06:41:29;91.07;;;40.10;;
64714;SDS011;51144;53.002;6.506;2022-11-15T06:43:56;81.40;;;40.08;;
64714;SDS011;51144;53.002;6.506;2022-11-15T06:46:21;87.40;;;40.67;;
64714;SDS011;51144;53.002;6.506;2022-11-15T06:48:49;85.13;;;41.00;;
64714;SDS011;51144;53.002;6.506;2022-11-15T06:51:16;95.32;;;40.63;;
64714;SDS011;51144;53.002;6.506;2022-11-15T06:53:42;82.32;;;40.85;;
64714;SDS011;51144;53.002;6.506;2022-11-15T06:56:07;82.32;;;39.83;;
64714;SDS011;51144;53.002;6.506;2022-11-15T06:58:34;78.85;;;39.13;;
64714;SDS011;51144;53.002;6.506;2022-11-15T07:01:00;72.93;;;37.85;;
64714;SDS011;51144;53.002;6.506;2022-11-15T07:03:30;77.88;;;37.85;;
64714;SDS011;51144;53.002;6.506;2022-11-15T07:05:57;86.68;;;39.20;;
64714;SDS011;51144;53.002;6.506;2022-11-15T07:08:23;83.10;;;38.10;;
64714;SDS011;51144;53.002;6.506;2022-11-15T07:10:51;76.97;;;38.67;;
64714;SDS011;51144;53.002;6.506;2022-11-15T07:13:17;79.25;;;38.35;;
64714;SDS011;51144;53.002;6.506;2022-11-15T07:15:43;84.30;;;39.20;;
64714;SDS011;51144;53.002;6.506;2022-11-15T07:18:08;77.90;;;38.03;;
64714;SDS011;51144;53.002;6.506;2022-11-15T07:20:34;79.50;;;37.17;;
64714;SDS011;51144;53.002;6.506;2022-11-15T07:23:00;69.35;;;36.85;;
64714;SDS011;51144;53.002;6.506;2022-11-15T07:25:27;77.95;;;37.05;;
64714;SDS011;51144;53.002;6.506;2022-11-15T07:27:59;70.25;;;35.75;;
64714;SDS011;51144;53.002;6.506;2022-11-15T07:30:25;68.80;;;36.63;;
64714;SDS011;51144;53.002;6.506;2022-11-15T07:33:01;66.68;;;35.08;;
64714;SDS011;51144;53.002;6.506;2022-11-15T07:35:27;65.20;;;35.90;;
64714;SDS011;51144;53.002;6.506;2022-11-15T07:37:57;63.50;;;33.95;;
64714;SDS011;51144;53.002;6.506;2022-11-15T07:40:25;71.50;;;35.30;;
64714;SDS011;51144;53.002;6.506;2022-11-15T07:42:51;64.53;;;34.08;;
64714;SDS011;51144;53.002;6.506;2022-11-15T07:45:17;66.20;;;35.95;;
64714;SDS011;51144;53.002;6.506;2022-11-15T07:47:46;61.83;;;34.60;;
64714;SDS011;51144;53.002;6.506;2022-11-15T07:50:13;63.95;;;33.80;;
64714;SDS011;51144;53.002;6.506;2022-11-15T07:52:38;61.80;;;34.95;;
64714;SDS011;51144;53.002;6.506;2022-11-15T07:55:04;63.63;;;32.58;;
64714;SDS011;51144;53.002;6.506;2022-11-15T07:57:30;55.35;;;31.80;;
64714;SDS011;51144;53.002;6.506;2022-11-15T07:59:55;53.97;;;30.80;;
64714;SDS011;51144;53.002;6.506;2022-11-15T08:02:21;56.80;;;31.05;;
64714;SDS011;51144;53.002;6.506;2022-11-15T08:04:47;47.15;;;30.27;;
64714;SDS011;51144;53.002;6.506;2022-11-15T08:07:12;55.55;;;30.60;;
64714;SDS011;51144;53.002;6.506;2022-11-15T08:09:38;50.08;;;31.27;;
64714;SDS011;51144;53.002;6.506;2022-11-15T08:12:04;44.75;;;29.98;;
64714;SDS011;51144;53.002;6.506;2022-11-15T08:14:30;49.50;;;28.65;;
64714;SDS011;51144;53.002;6.506;2022-11-15T08:16:56;43.60;;;28.75;;
64714;SDS011;51144;53.002;6.506;2022-11-15T08:19:21;48.13;;;28.65;;
64714;SDS011;51144;53.002;6.506;2022-11-15T08:21:47;45.92;;;28.67;;
64714;SDS011;51144;53.002;6.506;2022-11-15T08:24:13;46.70;;;28.70;;
64714;SDS011;51144;53.002;6.506;2022-11-15T08:26:39;41.90;;;27.48;;
64714;SDS011;51144;53.002;6.506;2022-11-15T08:29:05;43.30;;;27.23;;
64714;SDS011;51144;53.002;6.506;2022-11-15T08:31:32;44.28;;;27.30;;
64714;SDS011;51144;53.002;6.506;2022-11-15T08:33:58;43.10;;;26.20;;
64714;SDS011;51144;53.002;6.506;2022-11-15T08:36:23;42.33;;;27.73;;
64714;SDS011;51144;53.002;6.506;2022-11-15T08:38:49;46.88;;;26.75;;
64714;SDS011;51144;53.002;6.506;2022-11-15T08:41:18;41.60;;;25.80;;
64714;SDS011;51144;53.002;6.506;2022-11-15T08:43:53;42.53;;;27.55;;
64714;SDS011;51144;53.002;6.506;2022-11-15T08:46:18;40.22;;;25.85;;
64714;SDS011;51144;53.002;6.506;2022-11-15T08:48:44;36.25;;;26.23;;
64714;SDS011;51144;53.002;6.506;2022-11-15T08:51:10;37.78;;;24.23;;
64714;SDS011;51144;53.002;6.506;2022-11-15T08:53:35;35.83;;;24.02;;
64714;SDS011;51144;53.002;6.506;2022-11-15T08:56:01;37.22;;;24.85;;
64714;SDS011;51144;53.002;6.506;2022-11-15T08:58:27;34.72;;;24.60;;
64714;SDS011;51144;53.002;6.506;2022-11-15T09:00:53;34.30;;;22.73;;
64714;SDS011;51144;53.002;6.506;2022-11-15T09:03:19;32.10;;;22.70;;
64714;SDS011;51144;53.002;6.506;2022-11-15T09:05:44;30.65;;;23.30;;
64714;SDS011;51144;53.002;6.506;2022-11-15T09:08:10;33.38;;;23.75;;
64714;SDS011;51144;53.002;6.506;2022-11-15T09:10:37;30.15;;;23.30;;
64714;SDS011;51144;53.002;6.506;2022-11-15T09:13:03;31.17;;;23.27;;
64714;SDS011;51144;53.002;6.506;2022-11-15T09:15:29;33.13;;;24.25;;
64714;SDS011;51144;53.002;6.506;2022-11-15T09:17:57;32.90;;;22.75;;
64714;SDS011;51144;53.002;6.506;2022-11-15T09:20:24;28.92;;;22.83;;
64714;SDS011;51144;53.002;6.506;2022-11-15T09:22:50;32.92;;;23.35;;
64714;SDS011;51144;53.002;6.506;2022-11-15T09:25:15;34.10;;;22.88;;
64714;SDS011;51144;53.002;6.506;2022-11-15T09:27:41;31.35;;;22.33;;
64714;SDS011;51144;53.002;6.506;2022-11-15T09:30:07;34.97;;;22.95;;
64714;SDS011;51144;53.002;6.506;2022-11-15T09:32:33;32.13;;;21.60;;
64714;SDS011;51144;53.002;6.506;2022-11-15T09:34:58;30.02;;;23.15;;
64714;SDS011;51144;53.002;6.506;2022-11-15T09:37:24;35.22;;;23.17;;
64714;SDS011;51144;53.002;6.506;2022-11-15T09:39:49;27.20;;;20.25;;
64714;SDS011;51144;53.002;6.506;2022-11-15T09:42:22;26.92;;;19.27;;
64714;SDS011;51144;53.002;6.506;2022-11-15T09:44:56;30.67;;;20.83;;
64714;SDS011;51144;53.002;6.506;2022-11-15T09:50:14;28.67;;;20.42;;
64714;SDS011;51144;53.002;6.506;2022-11-15T09:52:44;28.00;;;19.77;;
64714;SDS011;51144;53.002;6.506;2022-11-15T09:55:11;25.38;;;18.95;;
64714;SDS011;51144;53.002;6.506;2022-11-15T09:57:46;28.67;;;18.92;;
64714;SDS011;51144;53.002;6.506;2022-11-15T10:00:20;23.35;;;18.17;;
64714;SDS011;51144;53.002;6.506;2022-11-15T10:03:09;22.67;;;16.92;;
64714;SDS011;51144;53.002;6.506;2022-11-15T10:05:40;21.85;;;18.45;;
64714;SDS011;51144;53.002;6.506;2022-11-15T10:11:07;24.20;;;16.23;;
64714;SDS011;51144;53.002;6.506;2022-11-15T10:13:36;23.45;;;17.38;;
64714;SDS011;51144;53.002;6.506;2022-11-15T10:16:18;22.95;;;17.58;;
64714;SDS011;51144;53.002;6.506;2022-11-15T10:22:00;21.27;;;16.20;;
64714;SDS011;51144;53.002;6.506;2022-11-15T10:24:43;23.50;;;16.30;;
64714;SDS011;51144;53.002;6.506;2022-11-15T10:27:11;22.83;;;16.55;;
64714;SDS011;51144;53.002;6.506;2022-11-15T10:29:48;22.42;;;17.45;;
64714;SDS011;51144;53.002;6.506;2022-11-15T10:32:15;21.92;;;15.80;;
64714;SDS011;51144;53.002;6.506;2022-11-15T10:34:42;22.20;;;16.85;;
64714;SDS011;51144;53.002;6.506;2022-11-15T10:37:08;23.10;;;16.67;;
64714;SDS011;51144;53.002;6.506;2022-11-15T10:39:34;25.42;;;16.90;;
64714;SDS011;51144;53.002;6.506;2022-11-15T10:42:25;23.67;;;16.60;;
64714;SDS011;51144;53.002;6.506;2022-11-15T10:44:52;23.33;;;16.25;;
64714;SDS011;51144;53.002;6.506;2022-11-15T10:47:23;21.73;;;15.05;;
64714;SDS011;51144;53.002;6.506;2022-11-15T10:49:58;19.48;;;15.23;;
64714;SDS011;51144;53.002;6.506;2022-11-15T10:52:30;16.38;;;14.60;;
64714;SDS011;51144;53.002;6.506;2022-11-15T10:57:47;18.15;;;13.35;;
64714;SDS011;51144;53.002;6.506;2022-11-15T11:03:31;19.27;;;13.55;;
64714;SDS011;51144;53.002;6.506;2022-11-15T11:05:35;17.15;;;11.88;;
64714;SDS011;51144;53.002;6.506;2022-11-15T11:08:04;11.82;;;10.63;;
64714;SDS011;51144;53.002;6.506;2022-11-15T11:10:56;11.75;;;10.48;;
64714;SDS011;51144;53.002;6.506;2022-11-15T11:13:27;9.55;;;7.68;;
64714;SDS011;51144;53.002;6.506;2022-11-15T11:16:11;6.85;;;6.20;;
64714;SDS011;51144;53.002;6.506;2022-11-15T11:21:22;6.07;;;5.18;;
64714;SDS011;51144;53.002;6.506;2022-11-15T11:23:57;6.50;;;4.75;;
64714;SDS011;51144;53.002;6.506;2022-11-15T11:26:41;7.10;;;4.07;;
64714;SDS011;51144;53.002;6.506;2022-11-15T11:34:58;4.35;;;2.10;;
64714;SDS011;51144;53.002;6.506;2022-11-15T11:42:55;4.40;;;1.27;;
64714;SDS011;51144;53.002;6.506;2022-11-15T11:48:52;4.60;;;0.63;;
64714;SDS011;51144;53.002;6.506;2022-11-15T11:51:22;3.50;;;0.70;;
64714;SDS011;51144;53.002;6.506;2022-11-15T11:56:40;5.07;;;0.50;;
64714;SDS011;51144;53.002;6.506;2022-11-15T11:59:22;4.05;;;0.75;;
64714;SDS011;51144;53.002;6.506;2022-11-15T12:02:35;4.05;;;0.60;;
64714;SDS011;51144;53.002;6.506;2022-11-15T12:05:11;3.03;;;0.60;;
64714;SDS011;51144;53.002;6.506;2022-11-15T12:07:45;3.67;;;0.75;;
64714;SDS011;51144;53.002;6.506;2022-11-15T12:10:28;5.45;;;1.15;;
64714;SDS011;51144;53.002;6.506;2022-11-15T12:13:04;4.53;;;0.50;;
64714;SDS011;51144;53.002;6.506;2022-11-15T12:15:56;5.20;;;1.02;;
64714;SDS011;51144;53.002;6.506;2022-11-15T12:18:35;3.45;;;0.88;;
64714;SDS011;51144;53.002;6.506;2022-11-15T12:21:04;6.10;;;0.85;;
64714;SDS011;51144;53.002;6.506;2022-11-15T12:23:42;3.03;;;0.60;;
64714;SDS011;51144;53.002;6.506;2022-11-15T12:26:20;3.27;;;0.90;;
64714;SDS011;51144;53.002;6.506;2022-11-15T12:28:56;1.60;;;0.70;;
64714;SDS011;51144;53.002;6.506;2022-11-15T12:31:32;2.45;;;0.80;;
64714;SDS011;51144;53.002;6.506;2022-11-15T12:34:29;4.38;;;0.93;;
64714;SDS011;51144;53.002;6.506;2022-11-15T12:37:01;4.38;;;1.13;;
64714;SDS011;51144;53.002;6.506;2022-11-15T12:42:42;4.88;;;1.30;;
64714;SDS011;51144;53.002;6.506;2022-11-15T12:45:26;7.13;;;1.90;;
64714;SDS011;51144;53.002;6.506;2022-11-15T12:50:53;4.50;;;1.42;;
64714;SDS011;51144;53.002;6.506;2022-11-15T12:59:06;4.97;;;1.30;;
64714;SDS011;51144;53.002;6.506;2022-11-15T13:11:57;1.92;;;0.80;;
64714;SDS011;51144;53.002;6.506;2022-11-15T13:20:00;4.68;;;0.70;;
64714;SDS011;51144;53.002;6.506;2022-11-15T13:22:38;2.10;;;0.80;;
64714;SDS011;51144;53.002;6.506;2022-11-15T13:33:16;3.35;;;0.47;;
64714;SDS011;51144;53.002;6.506;2022-11-15T13:39:00;2.22;;;0.40;;
64714;SDS011;51144;53.002;6.506;2022-11-15T13:41:49;1.90;;;0.63;;
64714;SDS011;51144;53.002;6.506;2022-11-15T13:44:20;4.40;;;0.70;;
64714;SDS011;51144;53.002;6.506;2022-11-15T13:46:47;2.17;;;0.30;;
64714;SDS011;51144;53.002;6.506;2022-11-15T13:49:13;5.10;;;0.30;;
64714;SDS011;51144;53.002;6.506;2022-11-15T13:54:54;1.73;;;0.20;;
64714;SDS011;51144;53.002;6.506;2022-11-15T13:57:20;4.00;;;0.32;;
64714;SDS011;51144;53.002;6.506;2022-11-15T14:02:30;3.72;;;0.55;;
64714;SDS011;51144;53.002;6.506;2022-11-15T14:04:58;1.83;;;0.55;;
64714;SDS011;51144;53.002;6.506;2022-11-15T14:07:30;3.10;;;0.43;;
64714;SDS011;51144;53.002;6.506;2022-11-15T14:09:57;4.15;;;0.30;;
64714;SDS011;51144;53.002;6.506;2022-11-15T14:12:30;2.10;;;0.70;;
64714;SDS011;51144;53.002;6.506;2022-11-15T14:14:58;2.88;;;0.30;;
64714;SDS011;51144;53.002;6.506;2022-11-15T14:19:53;3.40;;;0.20;;
64714;SDS011;51144;53.002;6.506;2022-11-15T14:22:20;3.88;;;0.30;;
64714;SDS011;51144;53.002;6.506;2022-11-15T14:27:38;1.58;;;0.30;;
64714;SDS011;51144;53.002;6.506;2022-11-15T14:30:04;2.00;;;0.20;;
64714;SDS011;51144;53.002;6.506;2022-11-15T14:32:44;3.45;;;0.20;;
64714;SDS011;51144;53.002;6.506;2022-11-15T14:35:14;2.50;;;0.30;;
64714;SDS011;51144;53.002;6.506;2022-11-15T14:37:42;3.63;;;0.30;;
64714;SDS011;51144;53.002;6.506;2022-11-15T14:40:08;2.42;;;0.20;;
64714;SDS011;51144;53.002;6.506;2022-11-15T14:42:37;3.38;;;0.25;;
64714;SDS011;51144;53.002;6.506;2022-11-15T14:45:04;0.82;;;0.10;;
64714;SDS011;51144;53.002;6.506;2022-11-15T14:47:37;5.07;;;0.20;;
64714;SDS011;51144;53.002;6.506;2022-11-15T14:50:02;1.80;;;0.20;;
64714;SDS011;51144;53.002;6.506;2022-11-15T14:52:29;1.25;;;0.20;;
64714;SDS011;51144;53.002;6.506;2022-11-15T14:54:59;1.17;;;0.20;;
64714;SDS011;51144;53.002;6.506;2022-11-15T14:57:27;4.93;;;0.50;;
64714;SDS011;51144;53.002;6.506;2022-11-15T14:59:53;1.90;;;0.20;;
64714;SDS011;51144;53.002;6.506;2022-11-15T15:02:20;0.50;;;0.30;;
64714;SDS011;51144;53.002;6.506;2022-11-15T15:04:47;1.58;;;0.30;;
64714;SDS011;51144;53.002;6.506;2022-11-15T15:07:14;1.90;;;0.30;;
64714;SDS011;51144;53.002;6.506;2022-11-15T15:09:40;2.45;;;0.30;;
64714;SDS011;51144;53.002;6.506;2022-11-15T15:12:20;1.40;;;0.40;;
64714;SDS011;51144;53.002;6.506;2022-11-15T15:14:48;4.80;;;0.93;;
64714;SDS011;51144;53.002;6.506;2022-11-15T15:17:15;3.75;;;0.60;;
64714;SDS011;51144;53.002;6.506;2022-11-15T15:19:41;2.20;;;0.47;;
64714;SDS011;51144;53.002;6.506;2022-11-15T15:22:15;2.53;;;0.30;;
64714;SDS011;51144;53.002;6.506;2022-11-15T15:24:42;3.30;;;0.40;;
64714;SDS011;51144;53.002;6.506;2022-11-15T15:27:09;3.55;;;0.65;;
64714;SDS011;51144;53.002;6.506;2022-11-15T15:29:34;5.15;;;0.75;;
64714;SDS011;51144;53.002;6.506;2022-11-15T15:32:00;3.20;;;0.70;;
64714;SDS011;51144;53.002;6.506;2022-11-15T15:34:26;4.35;;;1.15;;
64714;SDS011;51144;53.002;6.506;2022-11-15T15:39:53;3.95;;;1.45;;
64714;SDS011;51144;53.002;6.506;2022-11-15T15:42:20;2.58;;;1.13;;
64714;SDS011;51144;53.002;6.506;2022-11-15T15:44:47;8.02;;;1.05;;
64714;SDS011;51144;53.002;6.506;2022-11-15T15:47:13;4.30;;;1.98;;
64714;SDS011;51144;53.002;6.506;2022-11-15T15:49:41;1.60;;;1.45;;
64714;SDS011;51144;53.002;6.506;2022-11-15T15:52:07;3.15;;;1.02;;
64714;SDS011;51144;53.002;6.506;2022-11-15T15:54:33;3.20;;;1.40;;
64714;SDS011;51144;53.002;6.506;2022-11-15T15:56:59;3.53;;;1.33;;
64714;SDS011;51144;53.002;6.506;2022-11-15T15:59:24;2.75;;;1.25;;
64714;SDS011;51144;53.002;6.506;2022-11-15T16:01:50;1.60;;;1.08;;
64714;SDS011;51144;53.002;6.506;2022-11-15T16:04:15;2.55;;;1.08;;
64714;SDS011;51144;53.002;6.506;2022-11-15T16:06:41;1.88;;;0.90;;
64714;SDS011;51144;53.002;6.506;2022-11-15T16:09:13;4.22;;;1.23;;
64714;SDS011;51144;53.002;6.506;2022-11-15T16:11:40;3.72;;;0.90;;
64714;SDS011;51144;53.002;6.506;2022-11-15T16:14:06;1.98;;;0.75;;
64714;SDS011;51144;53.002;6.506;2022-11-15T16:16:32;2.50;;;0.98;;
64714;SDS011;51144;53.002;6.506;2022-11-15T16:18:59;4.70;;;0.70;;
64714;SDS011;51144;53.002;6.506;2022-11-15T16:21:26;3.22;;;0.90;;
64714;SDS011;51144;53.002;6.506;2022-11-15T16:23:52;2.00;;;0.70;;
64714;SDS011;51144;53.002;6.506;2022-11-15T16:26:19;1.63;;;0.77;;
64714;SDS011;51144;53.002;6.506;2022-11-15T16:28:46;6.13;;;0.73;;
64714;SDS011;51144;53.002;6.506;2022-11-15T16:31:12;2.47;;;0.55;;
64714;SDS011;51144;53.002;6.506;2022-11-15T16:33:38;1.35;;;0.63;;